PHTO/ITO METAR and TAF weather

Enter ICAO airport designator
Station Type Date Time Source
PHTO METAR 2019/07/18 10:53 UTC NOAA

PHTO 181053Z AUTO 24005KT 10SM -RA SCT027 BKN032 OVC047 23/19 A3007 RMK AO2 RAB41 SLP179 P0000 T02330194 TSNO


Station Type Date Time Source
PHTO Decoded METAR 2019/07/18 10:53 UTC NOAA

HILO INTERNATIONAL AIRPORT, HI, United States (PHTO) 19-43N 155-03W 12M
Jul 18, 2019 - 06:53 AM EDT / 2019.07.18 1053 UTC
Wind: from the WSW (240 degrees) at 6 MPH (5 KT):0
Visibility: 10 mile(s):0
Sky conditions: overcast
Weather: light rain
Precipitation last hour: A trace
Temperature: 73.9 F (23.3 C)
Dew Point: 66.9 F (19.4 C)
Relative Humidity: 78%
Pressure (altimeter): 30.07 in. Hg (1018 hPa)
ob: PHTO 181053Z AUTO 24005KT 10SM -RA SCT027 BKN032 OVC047 23/19 A3007 RMK AO2 RAB41 SLP179 P0000 T02330194 TSNO
cycle: 11

Station Type Date Time Source
PHTO TAF 2019/07/18 12:27 UTC NOAA

TAF PHTO 181123Z 1812/1912 24004KT P6SM VCSH FEW030 BKN035 OVC050
FM182000 02008KT P6SM VCSH FEW025 SCT035
FM190600 24006KT P6SM VCSH SCT025 BKN040

Example: see airport list